createdAt,value
2022-08-07T00:02:36.988Z,6.40
2022-08-07T00:04:55.964Z,10.80
2022-08-07T00:07:27.270Z,10.20
2022-08-07T00:10:19.106Z,9.40
2022-08-07T00:12:27.013Z,9.40
2022-08-07T00:14:56.314Z,9.00
2022-08-07T00:17:26.222Z,8.40
2022-08-07T00:20:01.461Z,8.20
2022-08-07T00:22:35.315Z,7.80
2022-08-07T00:24:57.816Z,9.20
2022-08-07T00:27:28.784Z,8.60
2022-08-07T00:29:59.307Z,8.40
2022-08-07T00:32:28.672Z,9.20
2022-08-07T00:34:57.887Z,8.20
2022-08-07T00:37:29.412Z,6.00
2022-08-07T00:39:57.973Z,6.40
2022-08-07T00:42:29.283Z,8.20
2022-08-07T00:44:58.589Z,10.25
2022-08-07T00:48:07.777Z,10.00
2022-08-07T00:50:20.315Z,9.40
2022-08-07T00:52:29.856Z,9.00
2022-08-07T00:55:04.687Z,10.00
2022-08-07T00:57:34.151Z,8.60
2022-08-07T01:00:04.181Z,6.60
2022-08-07T01:02:34.676Z,7.20
2022-08-07T01:05:19.059Z,8.80
2022-08-07T01:07:38.143Z,8.20
2022-08-07T01:10:11.037Z,7.40
2022-08-07T01:12:53.526Z,5.80
2022-08-07T01:15:16.863Z,9.00
2022-08-07T01:17:44.151Z,7.20
2022-08-07T01:20:17.465Z,8.00
2022-08-07T01:23:00.766Z,9.00
2022-08-07T01:25:54.613Z,6.80
2022-08-07T01:27:51.597Z,8.80
2022-08-07T01:30:21.642Z,6.40
2022-08-07T01:32:52.753Z,8.60
2022-08-07T01:35:24.437Z,3.00
2022-08-07T01:37:53.910Z,7.00
2022-08-07T01:40:24.475Z,8.40
2022-08-07T01:42:58.630Z,8.40
2022-08-07T01:45:36.923Z,8.80
2022-08-07T01:48:18.623Z,8.80
2022-08-07T01:50:29.357Z,7.00
2022-08-07T01:53:01.494Z,7.60
2022-08-07T01:55:35.087Z,5.60
2022-08-07T01:58:27.340Z,6.80
2022-08-07T02:00:49.064Z,8.60
2022-08-07T02:03:21.267Z,8.00
2022-08-07T02:05:59.868Z,7.20
2022-08-07T02:08:23.839Z,9.00
2022-08-07T02:10:58.176Z,9.00
2022-08-07T02:13:57.163Z,9.40
2022-08-07T02:16:03.801Z,5.00
2022-08-07T02:18:37.734Z,6.80
2022-08-07T02:21:16.177Z,3.40
2022-08-07T02:23:42.935Z,9.00
2022-08-07T02:26:32.522Z,8.60
2022-08-07T02:28:46.736Z,8.80
2022-08-07T02:31:28.220Z,5.80
2022-08-07T02:34:03.873Z,8.00
2022-08-07T02:36:28.340Z,8.00
2022-08-07T02:38:56.811Z,6.40
2022-08-07T02:41:33.424Z,7.80
2022-08-07T02:43:59.892Z,7.00
2022-08-07T02:46:31.499Z,6.60
2022-08-07T02:49:03.303Z,5.80
2022-08-07T02:51:49.932Z,7.80
2022-08-07T02:54:08.561Z,6.00
2022-08-07T02:56:40.796Z,9.00
2022-08-07T02:59:12.502Z,6.00
2022-08-07T03:01:47.081Z,8.00
2022-08-07T03:04:17.516Z,7.00
2022-08-07T03:06:48.800Z,5.60
2022-08-07T03:09:42.232Z,7.60
2022-08-07T03:11:58.022Z,8.20
2022-08-07T03:14:23.353Z,5.60
2022-08-07T03:16:54.376Z,8.00
2022-08-07T03:19:24.064Z,8.20
2022-08-07T03:21:56.127Z,8.60
2022-08-07T03:24:27.226Z,6.40
2022-08-07T03:26:59.551Z,7.80
2022-08-07T03:29:37.446Z,7.20
2022-08-07T03:32:12.780Z,10.40
2022-08-07T03:34:47.260Z,10.80
2022-08-07T03:37:14.168Z,9.60
2022-08-07T03:40:13.433Z,7.40
2022-08-07T03:42:17.269Z,7.60
2022-08-07T03:44:53.346Z,7.80
2022-08-07T03:47:19.169Z,8.40
2022-08-07T03:49:52.507Z,7.20
2022-08-07T03:52:22.858Z,10.20
2022-08-07T03:54:54.975Z,7.80
2022-08-07T03:58:35.251Z,8.60
2022-08-07T04:00:01.544Z,8.40
2022-08-07T04:02:28.551Z,7.00
2022-08-07T04:04:57.886Z,7.20
2022-08-07T04:07:36.166Z,7.00
2022-08-07T04:09:59.282Z,7.40
2022-08-07T04:12:31.827Z,7.80
2022-08-07T04:15:05.048Z,6.80
2022-08-07T04:18:57.335Z,7.80
2022-08-07T04:20:06.828Z,7.60
2022-08-07T04:22:35.889Z,20.60
2022-08-07T04:25:11.857Z,12.00
2022-08-07T04:27:44.110Z,7.80
2022-08-07T04:30:21.229Z,9.00
2022-08-07T04:32:44.970Z,9.80
2022-08-07T04:35:12.840Z,12.80
2022-08-07T04:38:02.925Z,11.80
2022-08-07T04:40:14.046Z,9.80
2022-08-07T04:42:43.664Z,12.80
2022-08-07T04:45:14.167Z,12.60
2022-08-07T04:47:56.947Z,18.80
2022-08-07T04:50:35.168Z,17.60
2022-08-07T04:53:09.156Z,10.00
2022-08-07T04:58:16.378Z,4.60
2022-08-07T04:59:07.704Z,7.00
2022-08-07T05:01:18.069Z,5.00
2022-08-07T05:04:06.665Z,6.80
2022-08-07T05:06:28.267Z,7.20
2022-08-07T05:09:06.150Z,9.60
2022-08-07T05:11:58.349Z,9.00
2022-08-07T05:14:55.449Z,8.80
2022-08-07T05:16:52.993Z,8.60
2022-08-07T05:19:32.689Z,5.60
2022-08-07T05:21:59.319Z,8.60
2022-08-07T05:24:39.465Z,8.40
2022-08-07T05:27:04.089Z,8.40
2022-08-07T05:29:48.048Z,8.20
2022-08-07T05:32:12.770Z,9.00
2022-08-07T05:34:43.118Z,9.80
2022-08-07T05:37:14.598Z,8.60
2022-08-07T05:40:16.569Z,8.20
2022-08-07T05:42:33.304Z,9.60
2022-08-07T05:45:04.499Z,7.80
2022-08-07T05:48:00.028Z,9.40
2022-08-07T05:49:53.300Z,8.40
2022-08-07T05:52:29.852Z,8.20
2022-08-07T05:54:55.994Z,8.00
2022-08-07T05:57:30.216Z,8.60
2022-08-07T06:00:01.249Z,8.40
2022-08-07T06:02:33.121Z,10.60
2022-08-07T06:05:05.071Z,9.00
2022-08-07T06:08:29.144Z,9.20
2022-08-07T06:10:11.313Z,10.40
2022-08-07T06:12:40.358Z,10.60
2022-08-07T06:15:15.275Z,8.80
2022-08-07T06:17:50.611Z,8.40
2022-08-07T06:20:32.024Z,10.00
2022-08-07T06:22:50.566Z,10.80
2022-08-07T06:25:20.646Z,9.60
2022-08-07T06:28:01.326Z,10.60
2022-08-07T06:30:24.366Z,10.20
2022-08-07T06:32:53.072Z,9.00
2022-08-07T06:35:22.210Z,7.40
2022-08-07T06:37:52.910Z,9.40
2022-08-07T06:40:22.807Z,10.80
2022-08-07T06:42:54.806Z,10.20
2022-08-07T06:45:25.338Z,9.00
2022-08-07T06:47:59.033Z,11.00
2022-08-07T06:50:25.602Z,8.40
2022-08-07T06:52:56.679Z,8.40
2022-08-07T06:55:47.874Z,9.60
2022-08-07T06:58:05.656Z,10.00
2022-08-07T07:00:39.746Z,10.00
2022-08-07T07:03:14.342Z,9.40
2022-08-07T07:06:04.188Z,7.60
2022-08-07T07:08:18.819Z,8.00
2022-08-07T07:10:54.723Z,10.40
2022-08-07T07:13:55.743Z,9.00
2022-08-07T07:15:56.490Z,5.40
2022-08-07T07:18:48.305Z,10.80
2022-08-07T07:22:04.328Z,10.40
2022-08-07T07:24:09.555Z,10.20
2022-08-07T07:26:37.145Z,9.80
2022-08-07T07:29:40.151Z,8.60
2022-08-07T07:31:44.490Z,8.00
2022-08-07T07:34:16.453Z,7.80
2022-08-07T07:36:53.803Z,9.80
2022-08-07T07:39:20.912Z,9.60
2022-08-07T07:42:13.470Z,9.00
2022-08-07T07:44:26.856Z,5.60
2022-08-07T07:47:12.074Z,10.80
2022-08-07T07:50:33.100Z,10.00
2022-08-07T07:52:04.092Z,9.60
2022-08-07T07:54:36.393Z,8.40
2022-08-07T07:57:06.749Z,9.60
2022-08-07T07:59:51.577Z,7.00
2022-08-07T08:02:10.975Z,8.60
2022-08-07T08:04:44.524Z,8.20
2022-08-07T08:07:20.131Z,7.00
2022-08-07T08:09:52.358Z,10.60
2022-08-07T08:12:51.111Z,6.20
2022-08-07T08:14:52.552Z,8.40
2022-08-07T08:17:57.607Z,9.40
2022-08-07T08:20:17.643Z,6.80
2022-08-07T08:22:56.089Z,10.60
2022-08-07T08:25:42.836Z,11.00
2022-08-07T08:28:10.169Z,10.80
2022-08-07T08:30:50.805Z,8.80
2022-08-07T08:33:15.303Z,11.40
2022-08-07T08:35:50.782Z,8.40
2022-08-07T08:38:22.007Z,11.20
2022-08-07T08:40:55.922Z,11.00
2022-08-07T08:43:42.901Z,8.20
2022-08-07T08:46:11.599Z,9.40
2022-08-07T08:48:58.821Z,10.40
2022-08-07T08:52:13.923Z,8.40
2022-08-07T08:54:25.887Z,8.00
2022-08-07T08:56:57.637Z,8.80
2022-08-07T08:59:51.011Z,9.40
2022-08-07T09:02:38.000Z,8.80
2022-08-07T09:05:32.106Z,7.00
2022-08-07T09:08:06.868Z,6.40
2022-08-07T09:11:00.407Z,7.80
2022-08-07T09:13:58.109Z,9.20
2022-08-07T09:16:47.527Z,9.40
2022-08-07T09:19:51.441Z,9.40
2022-08-07T09:22:23.021Z,10.20
2022-08-07T09:24:55.560Z,7.60
2022-08-07T09:27:59.641Z,9.20
2022-08-07T09:30:17.511Z,7.40
2022-08-07T09:32:57.137Z,8.40
2022-08-07T09:36:04.300Z,9.60
2022-08-07T09:38:11.146Z,6.00
2022-08-07T09:40:50.193Z,5.80
2022-08-07T09:44:05.660Z,8.60
2022-08-07T09:47:52.544Z,6.80
2022-08-07T09:50:01.222Z,6.00
2022-08-07T09:52:35.299Z,7.00
2022-08-07T09:55:17.321Z,6.00
2022-08-07T09:57:58.902Z,4.20
2022-08-07T10:00:31.959Z,3.20
2022-08-07T10:03:08.125Z,3.40
2022-08-07T10:06:17.584Z,3.60
2022-08-07T10:08:55.831Z,3.00
2022-08-07T10:12:01.331Z,2.60
2022-08-07T10:14:23.116Z,4.40
2022-08-07T10:17:17.457Z,3.00
2022-08-07T10:20:01.497Z,3.60
2022-08-07T10:22:50.846Z,4.20
2022-08-07T10:25:42.489Z,4.00
2022-08-07T10:28:20.615Z,2.40
2022-08-07T10:31:11.252Z,2.60
2022-08-07T10:34:17.985Z,1.80
2022-08-07T10:36:51.849Z,1.80
2022-08-07T10:39:42.198Z,3.00
2022-08-07T10:42:31.316Z,2.00
2022-08-07T10:45:05.980Z,1.80
2022-08-07T10:47:53.773Z,2.20
2022-08-07T10:50:40.111Z,3.00
2022-08-07T10:53:44.059Z,0.40
2022-08-07T10:56:21.044Z,2.60
2022-08-07T10:58:59.381Z,2.20
2022-08-07T11:01:35.356Z,3.20
2022-08-07T11:04:16.744Z,1.80
2022-08-07T11:06:50.970Z,3.80
2022-08-07T11:10:09.341Z,1.40
2022-08-07T11:12:32.094Z,3.40
2022-08-07T11:15:00.457Z,2.20
2022-08-07T11:17:45.176Z,1.80
2022-08-07T11:20:11.234Z,1.80
2022-08-07T11:22:49.874Z,1.40
2022-08-07T11:25:30.594Z,1.40
2022-08-07T11:28:15.329Z,1.60
2022-08-07T11:31:03.189Z,1.80
2022-08-07T11:33:59.231Z,1.00
2022-08-07T11:36:45.302Z,0.40
2022-08-07T11:39:20.587Z,2.20
2022-08-07T11:42:03.028Z,1.60
2022-08-07T11:44:37.865Z,0.80
2022-08-07T11:47:39.067Z,2.20
2022-08-07T11:50:32.827Z,2.20
2022-08-07T11:53:17.765Z,3.20
2022-08-07T11:56:15.641Z,2.20
2022-08-07T11:58:58.793Z,3.40
2022-08-07T12:01:59.355Z,3.80
2022-08-07T12:04:25.331Z,2.40
2022-08-07T12:07:09.066Z,2.80
2022-08-07T12:09:46.145Z,2.60
2022-08-07T12:12:30.646Z,2.00
2022-08-07T12:15:17.346Z,3.20
2022-08-07T12:17:59.739Z,2.20
2022-08-07T12:20:32.280Z,3.40
2022-08-07T12:24:05.687Z,1.80
2022-08-07T12:26:22.651Z,3.80
2022-08-07T12:28:59.163Z,3.60
2022-08-07T12:31:52.972Z,2.80
2022-08-07T12:34:22.771Z,4.20
2022-08-07T12:36:54.847Z,2.80
2022-08-07T12:39:42.602Z,2.80
2022-08-07T12:42:00.369Z,2.20
2022-08-07T12:44:32.494Z,2.20
2022-08-07T12:47:08.980Z,2.40
2022-08-07T12:50:04.983Z,3.20
2022-08-07T12:52:52.347Z,4.20
2022-08-07T12:55:40.779Z,2.20
2022-08-07T12:58:01.118Z,2.80
2022-08-07T13:00:35.918Z,2.00
2022-08-07T13:03:27.009Z,2.80
2022-08-07T13:06:21.813Z,2.00
2022-08-07T13:10:22.028Z,2.00
2022-08-07T13:12:01.867Z,3.20
2022-08-07T13:14:51.375Z,3.20
2022-08-07T13:17:40.102Z,5.40
2022-08-07T13:20:04.727Z,4.00
2022-08-07T13:22:37.270Z,3.40
2022-08-07T13:25:34.612Z,5.80
2022-08-07T13:28:24.116Z,10.00
2022-08-07T13:31:02.143Z,8.60
2022-08-07T13:34:30.402Z,9.00
2022-08-07T13:36:17.667Z,6.00
2022-08-07T13:38:50.703Z,5.40
2022-08-07T13:41:41.686Z,4.60
2022-08-07T13:44:10.619Z,5.60
2022-08-07T13:46:49.282Z,5.80
2022-08-07T13:50:34.506Z,5.80
2022-08-07T13:52:04.461Z,6.00
2022-08-07T13:54:22.598Z,6.80
2022-08-07T13:56:59.633Z,5.20
2022-08-07T13:59:31.074Z,7.40
2022-08-07T14:02:13.497Z,4.40
2022-08-07T14:04:54.392Z,3.80
2022-08-07T14:07:28.254Z,4.60
2022-08-07T14:10:17.844Z,5.20
2022-08-07T14:12:56.169Z,4.00
2022-08-07T14:15:37.122Z,4.40
2022-08-07T14:18:24.531Z,1.40
2022-08-07T14:20:49.127Z,3.60
2022-08-07T14:23:58.965Z,4.00
2022-08-07T14:26:09.067Z,3.60
2022-08-07T14:28:59.076Z,3.20
2022-08-07T14:31:16.561Z,4.20
2022-08-07T14:33:47.706Z,4.00
2022-08-07T14:36:17.190Z,3.60
2022-08-07T14:38:50.449Z,3.60
2022-08-07T14:41:34.041Z,4.80
2022-08-07T14:44:15.679Z,3.60
2022-08-07T14:46:56.630Z,4.40
2022-08-07T14:49:55.915Z,4.00
2022-08-07T14:52:04.553Z,3.60
2022-08-07T14:54:33.033Z,3.20
2022-08-07T14:56:53.198Z,4.20
2022-08-07T15:00:05.780Z,3.80
2022-08-07T15:01:58.684Z,0.60
2022-08-07T15:04:28.875Z,3.20
2022-08-07T15:07:00.921Z,3.20
2022-08-07T15:09:59.325Z,3.60
2022-08-07T15:12:07.266Z,3.20
2022-08-07T15:14:55.738Z,3.20
2022-08-07T15:17:19.273Z,3.20
2022-08-07T15:22:33.628Z,5.20
2022-08-07T15:25:17.916Z,3.80
2022-08-07T15:27:37.414Z,5.00
2022-08-07T15:33:01.648Z,4.00
2022-08-07T15:36:00.760Z,4.20
2022-08-07T15:40:35.387Z,5.20
2022-08-07T15:43:22.594Z,4.40
2022-08-07T15:46:00.073Z,3.20
2022-08-07T15:48:32.441Z,3.60
2022-08-07T15:53:52.138Z,4.60
2022-08-07T15:56:17.341Z,5.20
2022-08-07T15:58:52.270Z,6.00
2022-08-07T16:01:41.460Z,5.20
2022-08-07T16:04:15.492Z,7.60
2022-08-07T16:06:56.629Z,5.80
2022-08-07T16:09:54.600Z,4.20
2022-08-07T16:12:38.939Z,4.00
2022-08-07T16:15:09.907Z,5.20
2022-08-07T16:18:08.339Z,4.20
2022-08-07T16:22:01.303Z,5.00
2022-08-07T16:24:33.694Z,6.60
2022-08-07T16:27:19.810Z,6.00
2022-08-07T16:30:11.592Z,6.00
2022-08-07T16:32:53.915Z,7.20
2022-08-07T16:35:59.445Z,6.00
2022-08-07T16:38:29.601Z,7.60
2022-08-07T16:41:12.980Z,7.00
2022-08-07T16:44:02.520Z,6.00
2022-08-07T16:47:06.424Z,7.20
2022-08-07T16:50:28.272Z,5.60
2022-08-07T16:52:51.552Z,6.00
2022-08-07T16:55:08.505Z,8.80
2022-08-07T16:58:01.788Z,8.20
2022-08-07T17:00:29.918Z,8.60
2022-08-07T17:03:04.837Z,8.80
2022-08-07T17:06:30.215Z,6.60
2022-08-07T17:09:10.409Z,11.80
2022-08-07T17:12:05.332Z,8.80
2022-08-07T17:14:19.627Z,7.00
2022-08-07T17:16:55.932Z,13.00
2022-08-07T17:20:02.055Z,4.80
2022-08-07T17:22:19.167Z,9.60
2022-08-07T17:25:01.880Z,14.80
2022-08-07T17:27:34.739Z,12.80
2022-08-07T17:30:16.083Z,13.20
2022-08-07T17:33:04.921Z,9.80
2022-08-07T17:35:55.231Z,10.20
2022-08-07T17:38:44.416Z,12.20
2022-08-07T17:42:03.845Z,10.20
2022-08-07T17:44:08.276Z,11.80
2022-08-07T17:46:35.578Z,11.20
2022-08-07T17:49:24.265Z,12.40
2022-08-07T17:52:14.529Z,11.00
2022-08-07T17:54:55.234Z,13.20
2022-08-07T17:57:58.232Z,11.80
2022-08-07T18:00:34.413Z,15.80
2022-08-07T18:04:04.529Z,12.40
2022-08-07T18:06:16.566Z,13.60
2022-08-07T18:09:01.004Z,11.60
2022-08-07T18:12:16.287Z,12.20
2022-08-07T18:14:31.611Z,11.40
2022-08-07T18:17:10.706Z,11.80
2022-08-07T18:21:02.611Z,11.40
2022-08-07T18:22:40.475Z,14.80
2022-08-07T18:25:19.472Z,13.80
2022-08-07T18:28:34.078Z,13.80
2022-08-07T18:31:07.989Z,13.20
2022-08-07T18:34:00.009Z,5.80
2022-08-07T18:36:37.932Z,5.60
2022-08-07T18:40:07.086Z,10.60
2022-08-07T18:41:57.909Z,9.40
2022-08-07T18:45:44.468Z,9.60
2022-08-07T18:47:44.676Z,11.00
2022-08-07T18:50:45.467Z,8.60
2022-08-07T18:53:18.982Z,9.20
2022-08-07T18:56:18.521Z,8.20
2022-08-07T18:58:59.298Z,7.60
2022-08-07T19:02:33.031Z,8.20
2022-08-07T19:04:59.508Z,8.40
2022-08-07T19:07:35.202Z,9.40
2022-08-07T19:10:04.757Z,10.20
2022-08-07T19:12:48.597Z,10.20
2022-08-07T19:16:04.666Z,9.20
2022-08-07T19:18:34.277Z,8.60
2022-08-07T19:21:09.095Z,11.00
2022-08-07T19:23:58.040Z,8.20
2022-08-07T19:26:25.250Z,9.60
2022-08-07T19:30:55.781Z,8.40
2022-08-07T19:31:58.654Z,9.80
2022-08-07T19:34:05.841Z,8.40
2022-08-07T19:36:43.362Z,9.80
2022-08-07T19:39:17.189Z,11.20
2022-08-07T19:42:08.356Z,7.80
2022-08-07T19:44:31.357Z,9.80
2022-08-07T19:47:06.310Z,12.60
2022-08-07T19:49:56.352Z,9.60
2022-08-07T19:52:09.989Z,10.00
2022-08-07T19:54:55.882Z,9.80
2022-08-07T19:58:02.555Z,8.00
2022-08-07T19:59:58.530Z,8.40
2022-08-07T20:02:39.202Z,8.60
2022-08-07T20:05:10.979Z,8.80
2022-08-07T20:07:47.271Z,9.80
2022-08-07T20:10:36.394Z,8.60
2022-08-07T20:12:49.167Z,6.80
2022-08-07T20:15:22.430Z,8.80
2022-08-07T20:18:01.376Z,9.00
2022-08-07T20:20:26.417Z,10.80
2022-08-07T20:22:59.583Z,12.80
2022-08-07T20:25:40.448Z,8.40
2022-08-07T20:28:07.736Z,8.80
2022-08-07T20:30:40.016Z,8.40
2022-08-07T20:33:36.924Z,10.60
2022-08-07T20:35:54.586Z,9.80
2022-08-07T20:38:21.255Z,10.40
2022-08-07T20:40:53.303Z,11.80
2022-08-07T20:43:25.959Z,8.40
2022-08-07T20:46:28.203Z,11.00
2022-08-07T20:48:33.968Z,8.60
2022-08-07T20:51:09.758Z,10.00
2022-08-07T20:54:03.534Z,6.80
2022-08-07T20:56:10.927Z,6.00
2022-08-07T20:58:43.601Z,6.00
2022-08-07T21:01:19.412Z,9.80
2022-08-07T21:04:18.704Z,11.00
2022-08-07T21:06:28.403Z,15.20
2022-08-07T21:09:14.310Z,12.00
2022-08-07T21:11:50.132Z,12.60
2022-08-07T21:14:34.177Z,10.40
2022-08-07T21:18:00.590Z,16.60
2022-08-07T21:19:51.574Z,15.00
2022-08-07T21:22:11.253Z,13.20
2022-08-07T21:25:13.076Z,13.40
2022-08-07T21:28:02.633Z,12.20
2022-08-07T21:30:49.791Z,11.50
2022-08-07T21:33:41.346Z,11.20
2022-08-07T21:36:12.010Z,10.40
2022-08-07T21:38:54.853Z,12.20
2022-08-07T21:41:27.670Z,13.60
2022-08-07T21:44:14.686Z,10.00
2022-08-07T21:46:50.528Z,9.60
2022-08-07T21:49:30.258Z,13.80
2022-08-07T21:52:16.488Z,12.60
2022-08-07T21:54:54.655Z,15.80
2022-08-07T21:57:51.709Z,16.20
2022-08-07T22:00:22.649Z,14.40
2022-08-07T22:03:17.418Z,15.40
2022-08-07T22:05:55.567Z,15.80
2022-08-07T22:08:27.706Z,14.00
2022-08-07T22:11:00.303Z,31.40
2022-08-07T22:13:50.906Z,14.60
2022-08-07T22:16:38.553Z,17.00
2022-08-07T22:19:17.872Z,20.60
2022-08-07T22:22:04.297Z,22.60
2022-08-07T22:24:43.517Z,20.60
2022-08-07T22:27:34.135Z,22.80
2022-08-07T22:30:04.337Z,19.00
2022-08-07T22:32:43.910Z,19.20
2022-08-07T22:35:13.675Z,18.60
2022-08-07T22:38:06.750Z,17.80
2022-08-07T22:41:07.737Z,14.80
2022-08-07T22:43:40.562Z,13.80
2022-08-07T22:46:56.032Z,15.40
2022-08-07T22:49:19.924Z,17.00
2022-08-07T22:51:54.638Z,14.00
2022-08-07T22:54:48.811Z,12.60
2022-08-07T22:57:32.570Z,15.60
2022-08-07T23:00:07.285Z,8.60
2022-08-07T23:02:40.121Z,15.60
2022-08-07T23:06:08.220Z,17.60
2022-08-07T23:08:22.264Z,12.20
2022-08-07T23:11:10.292Z,13.20
2022-08-07T23:14:15.441Z,12.40
2022-08-07T23:16:55.281Z,13.00
2022-08-07T23:20:00.121Z,12.00
2022-08-07T23:22:34.267Z,12.60
2022-08-07T23:25:32.053Z,14.00
2022-08-07T23:28:31.451Z,15.80
2022-08-07T23:32:49.678Z,13.20
2022-08-07T23:34:37.932Z,15.80
2022-08-07T23:37:31.501Z,13.80
2022-08-07T23:40:20.379Z,13.60
2022-08-07T23:42:56.735Z,16.20
2022-08-07T23:46:02.605Z,12.80
2022-08-07T23:48:36.097Z,12.20
2022-08-07T23:52:53.488Z,16.40
2022-08-07T23:53:59.676Z,11.80
2022-08-07T23:56:53.627Z,15.60
